Time,TemperatureF,DewpointF,PressureIn,WindDirection,WindDirectionDegrees,WindSpeedMPH,WindSpeedGustMPH,Humidity,HourlyPrecipIn,Conditions,Clouds,dailyrainin,SolarRadiationWatts/m^2,SoftwareType,DateUTC
2013-10-08 00:00:00,60.0,11.0,-100.00,WNW,287,10.0,15.0,14,0.00,,,0.00,0.000000,,2013-10-08 07:00:00,
2013-10-08 00:42:00,60.0,11.0,-100.00,WNW,287,10.0,15.0,14,0.00,,,0.00,0.000000,,2013-10-08 07:42:00,
2013-10-08 00:52:00,60.0,11.0,-100.00,WNW,287,10.0,15.0,14,0.00,,,0.00,0.000000,,2013-10-08 07:52:00,
2013-10-08 01:00:00,57.0,14.0,-100.00,WNW,285,7.0,16.0,18,0.00,,,0.00,0.000000,,2013-10-08 08:00:00,
2013-10-08 01:22:00,57.0,14.0,-100.00,WNW,285,7.0,16.0,18,0.00,,,0.00,0.000000,,2013-10-08 08:22:00,
2013-10-08 01:32:00,57.0,14.0,-100.00,WNW,285,7.0,16.0,18,0.00,,,0.00,0.000000,,2013-10-08 08:32:00,
2013-10-08 01:42:00,57.0,14.0,-100.00,WNW,285,7.0,16.0,18,0.00,,,0.00,0.000000,,2013-10-08 08:42:00,
2013-10-08 01:52:00,57.0,14.0,-100.00,WNW,285,7.0,16.0,18,0.00,,,0.00,0.000000,,2013-10-08 08:52:00,
2013-10-08 02:00:00,58.0,18.0,-100.00,NW,309,4.0,13.0,21,0.00,,,-99.99,0.000000,,2013-10-08 09:00:00,
2013-10-08 02:43:00,58.0,18.0,-100.00,NW,309,4.0,13.0,21,0.00,,,-99.99,0.000000,,2013-10-08 09:43:00,
2013-10-08 02:53:00,58.0,18.0,-100.00,NW,309,4.0,13.0,21,0.00,,,-99.99,0.000000,,2013-10-08 09:53:00,
2013-10-08 03:00:00,58.0,18.0,-100.00,WNW,299,1.0,11.0,21,0.00,,,0.00,0.000000,,2013-10-08 10:00:00,
2013-10-08 03:42:00,58.0,18.0,-100.00,WNW,299,1.0,11.0,21,0.00,,,0.00,0.000000,,2013-10-08 10:42:00,
2013-10-08 03:53:00,58.0,18.0,-100.00,WNW,299,1.0,11.0,21,0.00,,,0.00,0.000000,,2013-10-08 10:53:00,
2013-10-08 04:00:00,55.0,16.0,-100.00,NNW,337,0.0,6.0,21,0.00,,,0.00,0.000000,,2013-10-08 11:00:00,
2013-10-08 04:22:00,55.0,16.0,-100.00,NNW,337,0.0,6.0,21,0.00,,,0.00,0.000000,,2013-10-08 11:22:00,
2013-10-08 04:33:00,55.0,16.0,-100.00,NNW,337,0.0,6.0,21,0.00,,,0.00,0.000000,,2013-10-08 11:33:00,
2013-10-08 04:42:00,55.0,16.0,-100.00,NNW,337,0.0,6.0,21,0.00,,,0.00,0.000000,,2013-10-08 11:42:00,
2013-10-08 04:52:00,55.0,16.0,-100.00,NNW,337,0.0,6.0,21,0.00,,,0.00,0.000000,,2013-10-08 11:52:00,
2013-10-08 05:00:00,52.0,14.0,-100.00,NW,311,3.0,5.0,22,0.00,,,0.00,0.000000,,2013-10-08 12:00:00,
2013-10-08 05:42:00,52.0,14.0,-100.00,NW,311,3.0,5.0,22,0.00,,,0.00,0.000000,,2013-10-08 12:42:00,
2013-10-08 05:52:00,52.0,14.0,-100.00,NW,311,3.0,5.0,22,0.00,,,0.00,0.000000,,2013-10-08 12:52:00,
2013-10-08 06:00:00,52.0,15.0,-100.00,NNW,337,1.0,6.0,23,0.00,,,0.00,0.000000,,2013-10-08 13:00:00,
2013-10-08 06:42:00,52.0,15.0,-100.00,NNW,337,1.0,6.0,23,0.00,,,0.00,0.000000,,2013-10-08 13:42:00,
2013-10-08 06:52:00,52.0,15.0,-100.00,NNW,337,1.0,6.0,23,0.00,,,0.00,0.000000,,2013-10-08 13:52:00,
2013-10-08 07:00:00,54.0,18.0,-100.00,NW,311,2.0,5.0,24,0.00,,,0.00,0.000000,,2013-10-08 14:00:00,
2013-10-08 07:42:00,54.0,18.0,-100.00,NW,311,2.0,5.0,24,0.00,,,0.00,0.000000,,2013-10-08 14:42:00,
2013-10-08 07:52:00,54.0,18.0,-100.00,NW,311,2.0,5.0,24,0.00,,,0.00,0.000000,,2013-10-08 14:52:00,
2013-10-08 08:00:00,54.0,18.0,-100.00,West,273,0.0,10.0,24,0.00,,,0.00,1.000000,,2013-10-08 15:00:00,
2013-10-08 08:44:00,54.0,18.0,-100.00,West,273,0.0,10.0,24,0.00,,,0.00,1.000000,,2013-10-08 15:44:00,
2013-10-08 08:53:00,54.0,18.0,-100.00,West,273,0.0,10.0,24,0.00,,,0.00,1.000000,,2013-10-08 15:53:00,
2013-10-08 09:00:00,59.0,18.0,-100.00,South,182,0.0,4.0,20,0.00,,,0.00,116.000000,,2013-10-08 16:00:00,
2013-10-08 09:42:00,59.0,18.0,-100.00,South,182,0.0,4.0,20,0.00,,,0.00,116.000000,,2013-10-08 16:42:00,
2013-10-08 09:53:00,59.0,18.0,-100.00,South,182,0.0,4.0,20,0.00,,,0.00,116.000000,,2013-10-08 16:53:00,
2013-10-08 10:00:00,65.0,20.0,-100.00,ESE,105,3.0,6.0,18,0.00,,,0.00,343.000000,,2013-10-08 17:00:00,
2013-10-08 10:42:00,65.0,20.0,-100.00,ESE,105,3.0,6.0,18,0.00,,,0.00,343.000000,,2013-10-08 17:42:00,
2013-10-08 10:52:00,65.0,20.0,-100.00,ESE,105,3.0,6.0,18,0.00,,,0.00,343.000000,,2013-10-08 17:52:00,
2013-10-08 11:00:00,68.0,20.0,-100.00,ESE,110,4.0,8.0,16,0.00,,,0.00,396.000000,,2013-10-08 18:00:00,
2013-10-08 11:22:00,68.0,20.0,-100.00,ESE,110,4.0,8.0,16,0.00,,,0.00,396.000000,,2013-10-08 18:22:00,
2013-10-08 11:32:00,68.0,20.0,-100.00,ESE,110,4.0,8.0,16,0.00,,,0.00,396.000000,,2013-10-08 18:32:00,
2013-10-08 11:42:00,68.0,20.0,-100.00,ESE,110,4.0,8.0,16,0.00,,,0.00,396.000000,,2013-10-08 18:42:00,
2013-10-08 11:53:00,68.0,20.0,-100.00,ESE,110,4.0,8.0,16,0.00,,,0.00,396.000000,,2013-10-08 18:53:00,
2013-10-08 12:00:00,73.0,24.0,-100.00,ESE,114,7.0,10.0,16,0.00,,,0.00,573.000000,,2013-10-08 19:00:00,
2013-10-08 12:22:00,73.0,24.0,-100.00,ESE,114,7.0,10.0,16,0.00,,,0.00,573.000000,,2013-10-08 19:22:00,
2013-10-08 12:32:00,73.0,24.0,-100.00,ESE,114,7.0,10.0,16,0.00,,,0.00,573.000000,,2013-10-08 19:32:00,
2013-10-08 12:42:00,73.0,24.0,-100.00,ESE,114,7.0,10.0,16,0.00,,,0.00,573.000000,,2013-10-08 19:42:00,
2013-10-08 12:52:00,73.0,24.0,-100.00,ESE,114,7.0,10.0,16,0.00,,,0.00,573.000000,,2013-10-08 19:52:00,
2013-10-08 13:00:00,74.0,23.0,-100.00,WSW,258,13.0,24.0,15,0.00,,,0.00,984.000000,,2013-10-08 20:00:00,
2013-10-08 13:22:00,74.0,23.0,-100.00,WSW,258,13.0,24.0,15,0.00,,,0.00,984.000000,,2013-10-08 20:22:00,
2013-10-08 13:32:00,74.0,23.0,-100.00,WSW,258,13.0,24.0,15,0.00,,,0.00,984.000000,,2013-10-08 20:32:00,
2013-10-08 13:42:00,74.0,23.0,-100.00,WSW,258,13.0,24.0,15,0.00,,,0.00,984.000000,,2013-10-08 20:42:00,
2013-10-08 13:52:00,74.0,23.0,-100.00,WSW,258,13.0,24.0,15,0.00,,,0.00,984.000000,,2013-10-08 20:52:00,
2013-10-08 14:00:00,73.0,23.0,-100.00,WSW,258,14.0,27.0,15,0.00,,,0.00,1059.000000,,2013-10-08 21:00:00,
2013-10-08 14:22:00,73.0,23.0,-100.00,WSW,258,14.0,27.0,15,0.00,,,0.00,1059.000000,,2013-10-08 21:22:00,
2013-10-08 14:34:00,73.0,23.0,-100.00,WSW,258,14.0,27.0,15,0.00,,,0.00,1059.000000,,2013-10-08 21:34:00,
2013-10-08 14:44:00,73.0,23.0,-100.00,WSW,258,14.0,27.0,15,0.00,,,0.00,1059.000000,,2013-10-08 21:44:00,
2013-10-08 14:54:00,73.0,23.0,-100.00,WSW,258,14.0,27.0,15,0.00,,,0.00,1059.000000,,2013-10-08 21:54:00,
2013-10-08 15:00:00,72.0,17.0,-100.00,West,264,12.0,28.0,12,0.00,,,0.00,1035.000000,,2013-10-08 22:00:00,
2013-10-08 15:48:00,72.0,17.0,-100.00,West,264,12.0,28.0,12,0.00,,,0.00,1035.000000,,2013-10-08 22:48:00,
2013-10-08 15:57:00,72.0,17.0,-100.00,West,264,12.0,28.0,12,0.00,,,0.00,1035.000000,,2013-10-08 22:57:00,
2013-10-08 16:00:00,73.0,17.0,-100.00,WNW,283,13.0,29.0,12,0.00,,,0.00,935.000000,,2013-10-08 23:00:00,
2013-10-08 16:23:00,73.0,17.0,-100.00,WNW,283,13.0,29.0,12,0.00,,,0.00,935.000000,,2013-10-08 23:23:00,
2013-10-08 16:34:00,73.0,17.0,-100.00,WNW,283,13.0,29.0,12,0.00,,,0.00,935.000000,,2013-10-08 23:34:00,
2013-10-08 16:42:00,73.0,17.0,-100.00,WNW,283,13.0,29.0,12,0.00,,,0.00,935.000000,,2013-10-08 23:42:00,
2013-10-08 16:52:00,73.0,17.0,-100.00,WNW,283,13.0,29.0,12,0.00,,,0.00,935.000000,,2013-10-08 23:52:00,
2013-10-08 17:00:00,71.0,16.0,-100.00,West,280,11.0,26.0,12,0.00,,,0.00,750.000000,,2013-10-09 00:00:00,
2013-10-08 17:22:00,71.0,16.0,-100.00,West,280,11.0,26.0,12,0.00,,,0.00,750.000000,,2013-10-09 00:22:00,
2013-10-08 17:32:00,71.0,16.0,-100.00,West,280,11.0,26.0,12,0.00,,,0.00,750.000000,,2013-10-09 00:32:00,
2013-10-08 17:43:00,71.0,16.0,-100.00,West,280,11.0,26.0,12,0.00,,,0.00,750.000000,,2013-10-09 00:43:00,
2013-10-08 17:52:00,71.0,16.0,-100.00,West,280,11.0,26.0,12,0.00,,,0.00,750.000000,,2013-10-09 00:52:00,
2013-10-08 18:00:00,70.0,20.0,-100.00,WNW,285,13.0,25.0,15,0.00,,,0.00,509.000000,,2013-10-09 01:00:00,
2013-10-08 18:43:00,70.0,20.0,-100.00,WNW,285,13.0,25.0,15,0.00,,,0.00,509.000000,,2013-10-09 01:43:00,
2013-10-08 18:52:00,70.0,20.0,-100.00,WNW,285,13.0,25.0,15,0.00,,,0.00,509.000000,,2013-10-09 01:52:00,
2013-10-08 19:00:00,63.0,20.0,-100.00,WNW,289,12.0,25.0,19,0.00,,,0.00,179.000000,,2013-10-09 02:00:00,
2013-10-08 19:23:00,63.0,20.0,-100.00,WNW,289,12.0,25.0,19,0.00,,,0.00,179.000000,,2013-10-09 02:23:00,
2013-10-08 19:32:00,63.0,20.0,-100.00,WNW,289,12.0,25.0,19,0.00,,,0.00,179.000000,,2013-10-09 02:32:00,
2013-10-08 19:42:00,63.0,20.0,-100.00,WNW,289,12.0,25.0,19,0.00,,,0.00,179.000000,,2013-10-09 02:42:00,
2013-10-08 19:52:00,63.0,20.0,-100.00,WNW,289,12.0,25.0,19,0.00,,,0.00,179.000000,,2013-10-09 02:52:00,
2013-10-08 20:00:00,62.0,22.0,-100.00,West,271,14.0,28.0,21,0.00,,,0.00,3.000000,,2013-10-09 03:00:00,
2013-10-08 20:45:00,62.0,22.0,-100.00,West,271,14.0,28.0,21,0.00,,,0.00,3.000000,,2013-10-09 03:45:00,
2013-10-08 20:54:00,62.0,22.0,-100.00,West,271,14.0,28.0,21,0.00,,,0.00,3.000000,,2013-10-09 03:54:00,
2013-10-08 21:00:00,61.0,20.0,-100.00,NW,307,6.0,25.0,20,0.00,,,0.00,0.000000,,2013-10-09 04:00:00,
2013-10-08 21:24:00,61.0,20.0,-100.00,NW,307,6.0,25.0,20,0.00,,,0.00,0.000000,,2013-10-09 04:24:00,
2013-10-08 21:34:00,61.0,20.0,-100.00,NW,307,6.0,25.0,20,0.00,,,0.00,0.000000,,2013-10-09 04:34:00,
2013-10-08 21:44:00,61.0,20.0,-100.00,NW,307,6.0,25.0,20,0.00,,,0.00,0.000000,,2013-10-09 04:44:00,
2013-10-08 21:54:00,61.0,20.0,-100.00,NW,307,6.0,25.0,20,0.00,,,0.00,0.000000,,2013-10-09 04:54:00,
2013-10-08 22:00:00,59.0,20.0,-100.00,SE,133,0.0,20.0,22,0.00,,,0.00,0.000000,,2013-10-09 05:00:00,
2013-10-08 22:42:00,59.0,20.0,-100.00,SE,133,0.0,20.0,22,0.00,,,0.00,0.000000,,2013-10-09 05:42:00,
2013-10-08 22:52:00,59.0,20.0,-100.00,SE,133,0.0,20.0,22,0.00,,,0.00,0.000000,,2013-10-09 05:52:00,
2013-10-08 23:00:00,54.0,19.0,-100.00,West,280,5.0,10.0,25,0.00,,,0.00,0.000000,,2013-10-09 06:00:00,
2013-10-08 23:22:00,54.0,19.0,-100.00,West,280,5.0,10.0,25,0.00,,,0.00,0.000000,,2013-10-09 06:22:00,
2013-10-08 23:33:00,54.0,19.0,-100.00,West,280,5.0,10.0,25,0.00,,,0.00,0.000000,,2013-10-09 06:33:00,
2013-10-08 23:42:00,54.0,19.0,-100.00,West,280,5.0,10.0,25,0.00,,,0.00,0.000000,,2013-10-09 06:42:00,
2013-10-08 23:52:00,54.0,19.0,-100.00,West,280,5.0,10.0,25,0.00,,,0.00,0.000000,,2013-10-09 06:52:00,